Time;durP1;ratioP1;P1;durP2;ratioP2;P2;SDS_P1;SDS_P2;PMS_P1;PMS_P2;Temp;Humidity;BMP_temperature;BMP_pressure;BME280_temperature;BME280_humidity;BME280_pressure;Samples;Min_cycle;Max_cycle;Signal;HPM_P1;HPM_P2
2022/08/25 00:01:53;;;;;;;3.83;3.50;;;;;;;21.15;72.75;156802.25;5071120;28;20474;-78
2022/08/25 00:04:21;;;;;;;4.63;3.80;;;;;;;21.10;72.98;156789.22;5071119;28;20434;-78
2022/08/25 00:06:48;;;;;;;4.07;3.70;;;;;;;21.08;73.07;156783.97;5087548;28;20450;-78
2022/08/25 00:09:17;;;;;;;4.00;3.27;;;;;;;21.00;73.50;156763.03;5087550;28;20452;-78
2022/08/25 00:11:44;;;;;;;4.90;3.77;;;;;;;20.97;73.66;156755.25;5087782;28;20544;-78
2022/08/25 00:14:13;;;;;;;4.50;4.10;;;;;;;21.00;73.50;156763.03;5070903;28;20521;-78
2022/08/25 00:16:40;;;;;;;4.40;4.00;;;;;;;20.99;73.48;156760.44;5072147;28;20529;-78
2022/08/25 00:19:10;;;;;;;4.40;4.00;;;;;;;20.95;73.89;156750.00;5070406;28;20838;-75
2022/08/25 00:21:39;;;;;;;3.60;3.30;;;;;;;20.89;74.40;156734.38;5070987;28;20974;-76
2022/08/25 00:24:05;;;;;;;4.50;4.10;;;;;;;20.86;74.73;156726.53;5072049;28;20797;-78
2022/08/25 00:26:32;;;;;;;4.83;4.43;;;;;;;20.88;74.42;156733.06;5087293;28;20965;-77
2022/08/25 00:29:00;;;;;;;4.53;3.80;;;;;;;20.88;74.64;156731.75;5070540;28;20442;-78
2022/08/25 00:31:29;;;;;;;8.53;4.00;;;;;;;20.87;74.75;156729.09;5072175;28;20469;-77
2022/08/25 00:33:55;;;;;;;4.17;3.77;;;;;;;20.84;75.04;156722.59;5087551;28;20541;-78
2022/08/25 00:36:22;;;;;;;4.70;4.20;;;;;;;20.87;75.03;156730.41;5070506;28;20509;-77
2022/08/25 00:38:49;;;;;;;5.27;4.77;;;;;;;20.86;75.24;156726.53;5071807;28;20467;-75
2022/08/25 00:41:19;;;;;;;4.47;4.07;;;;;;;20.81;75.52;156714.75;5104244;28;20446;-77
2022/08/25 00:43:50;;;;;;;5.93;4.10;;;;;;;20.84;75.30;156722.59;5106802;28;20516;-78
2022/08/25 00:46:20;;;;;;;5.63;4.47;;;;;;;20.80;76.09;156712.16;5107931;28;20450;-78
2022/08/25 00:48:57;;;;;;;4.90;4.43;;;;;;;20.80;75.69;156712.16;5074266;28;20437;-77
2022/08/25 00:51:32;;;;;;;4.50;4.10;;;;;;;20.76;76.21;156701.72;5075420;28;20446;-78
2022/08/25 00:53:59;;;;;;;4.80;4.40;;;;;;;20.74;76.51;156695.19;5090793;28;20796;-78
2022/08/25 00:56:27;;;;;;;4.63;4.10;;;;;;;20.76;76.36;156700.44;5073569;28;20481;-77
2022/08/25 00:58:53;;;;;;;4.70;4.30;;;;;;;20.71;76.75;156687.34;5074005;28;20564;-78
2022/08/25 01:01:20;;;;;;;5.13;4.30;;;;;;;20.69;76.70;156683.47;5073692;28;20438;-78
2022/08/25 01:03:48;;;;;;;4.83;4.20;;;;;;;20.68;76.90;156679.56;5091108;28;20442;-78
2022/08/25 01:06:15;;;;;;;4.40;4.00;;;;;;;20.68;76.89;156680.84;5073863;28;20549;-77
2022/08/25 01:08:42;;;;;;;4.90;4.30;;;;;;;20.66;77.24;156675.63;5107620;28;20441;-78
2022/08/25 01:11:10;;;;;;;4.77;4.37;;;;;;;20.70;77.31;156686.09;5075295;28;20449;-78
2022/08/25 01:13:40;;;;;;;4.60;4.20;;;;;;;20.67;77.35;156676.94;5073772;28;20453;-78
2022/08/25 01:16:07;;;;;;;5.13;4.43;;;;;;;20.61;77.62;156663.91;5075109;28;20779;-78
2022/08/25 01:18:46;;;;;;;5.33;4.30;;;;;;;20.66;77.30;156675.63;5074562;28;20460;-77
2022/08/25 01:21:14;;;;;;;4.77;4.27;;;;;;;20.57;77.87;156652.16;5056938;28;20875;-78
2022/08/25 01:23:41;;;;;;;4.30;3.90;;;;;;;20.55;78.03;156648.22;5074695;28;20537;-78
2022/08/25 01:26:12;;;;;;;5.20;4.70;;;;;;;20.50;78.30;156633.88;5074754;28;20487;-78
2022/08/25 01:29:19;;;;;;;5.00;4.50;;;;;;;20.50;78.43;156633.88;5074243;28;20897;-78
2022/08/25 01:31:28;;;;;;;4.70;4.30;;;;;;;20.60;78.13;156661.28;5072600;28;20453;-78
2022/08/25 01:33:55;;;;;;;7.60;4.40;;;;;;;20.49;78.60;156631.28;5073647;28;20426;-78
2022/08/25 01:36:25;;;;;;;6.13;5.53;;;;;;;20.47;78.81;156627.34;5072929;28;20446;-78
2022/08/25 01:38:52;;;;;;;5.50;4.37;;;;;;;20.45;78.80;156622.16;5090352;28;20465;-78
2022/08/25 01:41:26;;;;;;;4.83;4.43;;;;;;;20.40;79.10;156607.78;5074506;28;20516;-78
2022/08/25 01:43:53;;;;;;;5.60;4.80;;;;;;;20.41;79.30;156610.44;5090415;28;20800;-78
2022/08/25 01:46:20;;;;;;;6.13;5.53;;;;;;;20.38;79.67;156602.59;5073679;28;20460;-78
2022/08/25 01:48:46;;;;;;;4.63;4.23;;;;;;;20.36;79.74;156598.66;5073195;28;20439;-78
2022/08/25 01:51:14;;;;;;;5.90;4.90;;;;;;;20.35;79.76;156596.06;5072933;28;20490;-78
2022/08/25 01:53:43;;;;;;;4.63;4.23;;;;;;;20.36;80.06;156598.66;5055718;28;20474;-78
2022/08/25 01:56:11;;;;;;;5.13;4.63;;;;;;;20.38;79.86;156603.91;5089503;28;20473;-78
2022/08/25 01:58:42;;;;;;;4.67;4.27;;;;;;;20.40;79.75;156607.78;5055987;28;20468;-77
2022/08/25 02:01:13;;;;;;;5.10;4.60;;;;;;;20.39;79.80;156606.47;5074171;28;20450;-78
2022/08/25 02:03:42;;;;;;;4.97;4.47;;;;;;;20.39;79.96;156606.47;5056255;28;20441;-78
2022/08/25 02:06:11;;;;;;;6.23;4.90;;;;;;;20.40;79.86;156607.78;5089843;28;20917;-78
2022/08/25 02:08:38;;;;;;;5.43;4.93;;;;;;;20.37;79.68;156601.28;5089640;28;20426;-78
2022/08/25 02:11:06;;;;;;;5.63;5.00;;;;;;;20.35;80.01;156596.06;5072227;28;20541;-78
2022/08/25 02:13:33;;;;;;;6.27;4.80;;;;;;;20.28;80.16;156576.50;5072840;28;20935;-78
2022/08/25 02:16:01;;;;;;;5.37;4.87;;;;;;;20.30;80.21;156581.72;5073883;28;20438;-78
2022/08/25 02:18:28;;;;;;;5.30;4.50;;;;;;;20.30;80.08;156583.03;5089183;28;20560;-78
2022/08/25 02:20:55;;;;;;;5.87;4.93;;;;;;;20.33;80.28;156590.81;5073916;28;20438;-78
2022/08/25 02:23:21;;;;;;;7.13;5.17;;;;;;;20.31;80.45;156585.63;5072504;28;20844;-77
2022/08/25 02:25:48;;;;;;;5.67;5.07;;;;;;;20.34;80.66;156593.44;5073443;28;20541;-78
2022/08/25 02:28:16;;;;;;;5.03;4.60;;;;;;;20.35;80.53;156594.75;5055977;28;20531;-77
2022/08/25 02:30:43;;;;;;;5.30;4.63;;;;;;;20.29;80.56;156580.41;5068568;28;20430;-78
2022/08/25 02:33:10;;;;;;;6.03;5.43;;;;;;;20.23;80.98;156564.69;5068913;28;20530;-78
2022/08/25 02:35:37;;;;;;;5.43;4.93;;;;;;;20.28;80.90;156577.78;5071898;28;20555;-78
2022/08/25 02:38:04;;;;;;;6.80;5.27;;;;;;;20.27;80.96;156575.19;5105564;28;20485;-77
2022/08/25 02:40:31;;;;;;;5.43;4.93;;;;;;;20.29;81.01;156580.41;5072158;28;20785;-78
2022/08/25 02:42:58;;;;;;;5.63;4.87;;;;;;;20.28;80.73;156577.78;5071730;28;20442;-78
2022/08/25 02:45:26;;;;;;;5.63;5.00;;;;;;;20.26;80.84;156571.25;5071787;28;20438;-78
2022/08/25 02:47:53;;;;;;;5.77;5.27;;;;;;;20.20;81.18;156556.84;5073442;28;20533;-78
2022/08/25 02:50:20;;;;;;;5.90;5.30;;;;;;;20.11;81.46;156533.41;5088779;28;20438;-78
2022/08/25 02:52:49;;;;;;;5.93;5.43;;;;;;;20.10;81.78;156529.47;5072252;28;20454;-78
2022/08/25 02:55:16;;;;;;;5.40;4.90;;;;;;;20.12;81.54;156536.00;5072920;28;20559;-78
2022/08/25 02:57:43;;;;;;;6.20;5.57;;;;;;;20.13;81.88;156538.63;5088091;28;20522;-78
2022/08/25 03:00:12;;;;;;;6.63;5.50;;;;;;;20.10;81.78;156530.78;5072693;28;20477;-78
2022/08/25 03:02:40;;;;;;;7.20;5.73;;;;;;;20.01;81.83;156507.34;5072556;28;20448;-78
2022/08/25 03:05:08;;;;;;;6.07;5.47;;;;;;;19.92;82.31;156485.16;5072555;28;20438;-77
2022/08/25 03:07:35;;;;;;;6.20;5.60;;;;;;;19.85;82.63;156466.94;5071290;28;20897;-77
2022/08/25 03:10:05;;;;;;;6.10;5.50;;;;;;;19.83;82.48;156461.66;5088582;28;20928;-78
2022/08/25 03:12:31;;;;;;;6.77;5.50;;;;;;;19.89;83.39;156476.03;5071545;28;20454;-78
2022/08/25 03:14:58;;;;;;;5.77;5.23;;;;;;;19.93;83.27;156486.47;5071622;28;20437;-78
2022/08/25 03:17:25;;;;;;;6.10;5.50;;;;;;;19.90;83.28;156479.97;5071489;28;20436;-78
2022/08/25 03:19:53;;;;;;;6.30;5.70;;;;;;;19.82;83.34;156457.78;5070807;28;20458;-78
2022/08/25 03:22:20;;;;;;;5.70;4.87;;;;;;;19.79;83.59;156449.94;5071518;28;20468;-78
2022/08/25 03:24:46;;;;;;;6.10;5.50;;;;;;;19.79;83.96;156449.94;5072512;28;20468;-78
2022/08/25 03:27:14;;;;;;;6.70;6.00;;;;;;;19.77;84.04;156444.75;5071536;28;20503;-78
2022/08/25 03:29:42;;;;;;;6.37;5.60;;;;;;;19.73;84.21;156434.28;5070881;28;20834;-78
2022/08/25 03:32:09;;;;;;;6.37;5.70;;;;;;;19.70;84.41;156426.47;5071405;28;20805;-78
2022/08/25 03:34:35;;;;;;;7.23;6.63;;;;;;;19.63;84.60;156408.22;5071145;28;20430;-78
2022/08/25 03:37:04;;;;;;;6.87;5.70;;;;;;;19.61;84.67;156404.34;5072451;28;20927;-78
2022/08/25 03:39:31;;;;;;;6.70;5.43;;;;;;;19.59;84.38;156399.09;5072217;28;20457;-78
2022/08/25 03:41:58;;;;;;;6.93;6.17;;;;;;;19.54;84.19;156384.78;5071283;28;20473;-78
2022/08/25 03:44:24;;;;;;;6.00;5.27;;;;;;;19.46;84.74;156363.94;5070841;28;20439;-78
2022/08/25 03:46:52;;;;;;;7.67;5.60;;;;;;;19.36;85.39;156340.41;5072996;28;20484;-77
2022/08/25 03:49:22;;;;;;;7.73;6.30;;;;;;;19.30;85.62;156323.47;5068598;28;20469;-78
2022/08/25 03:51:50;;;;;;;6.90;6.20;;;;;;;19.25;86.05;156311.72;5055688;28;20933;-77
2022/08/25 03:54:20;;;;;;;5.20;4.70;;;;;;;19.22;86.10;156302.63;5066823;28;20445;-78
2022/08/25 03:56:47;;;;;;;5.87;5.37;;;;;;;19.19;86.33;156296.13;5081497;28;20477;-78
2022/08/25 03:59:14;;;;;;;6.07;5.47;;;;;;;19.16;86.96;156286.97;5068753;28;20470;-78
2022/08/25 04:01:42;;;;;;;6.33;5.83;;;;;;;19.09;86.87;156268.75;5070099;28;20450;-78
2022/08/25 04:04:11;;;;;;;6.80;6.20;;;;;;;19.12;86.97;156277.84;5071610;28;20422;-77
2022/08/25 04:06:38;;;;;;;6.60;6.00;;;;;;;19.13;87.10;156279.16;5071565;28;20772;-77
2022/08/25 04:09:05;;;;;;;7.30;6.10;;;;;;;19.08;87.05;156267.44;5070488;28;20512;-78
2022/08/25 04:11:33;;;;;;;7.10;6.20;;;;;;;19.10;86.96;156271.31;5086997;28;20564;-78
2022/08/25 04:14:01;;;;;;;7.13;6.43;;;;;;;19.14;87.51;156283.03;5069688;28;20434;-78
2022/08/25 04:16:30;;;;;;;6.40;5.83;;;;;;;19.13;87.75;156279.16;5069303;28;20446;-78
2022/08/25 04:18:58;;;;;;;7.57;6.43;;;;;;;19.14;87.81;156283.03;5056051;28;20512;-78
2022/08/25 04:21:26;;;;;;;6.93;6.23;;;;;;;19.18;87.96;156292.19;5074727;28;20855;-78
2022/08/25 04:23:54;;;;;;;6.80;6.20;;;;;;;19.15;87.67;156285.66;5076088;28;20528;-78
2022/08/25 04:26:22;;;;;;;6.53;5.93;;;;;;;19.09;87.30;156270.00;5075776;28;20544;-78
2022/08/25 04:28:51;;;;;;;6.97;6.27;;;;;;;19.02;87.60;156251.78;5091103;28;20426;-78
2022/08/25 04:31:20;;;;;;;6.93;5.90;;;;;;;18.97;88.05;156238.75;5091385;28;20536;-77
2022/08/25 04:33:47;;;;;;;6.70;6.00;;;;;;;18.93;87.90;156228.31;5074444;28;20438;-78
2022/08/25 04:36:15;;;;;;;5.83;5.23;;;;;;;18.93;88.50;156228.31;5091054;28;20449;-78
2022/08/25 04:38:43;;;;;;;7.77;6.20;;;;;;;18.97;88.79;156238.75;5090754;28;20998;-77
2022/08/25 04:41:12;;;;;;;6.63;5.40;;;;;;;18.98;88.32;156241.38;5107799;28;20850;-77
2022/08/25 04:43:40;;;;;;;6.37;5.80;;;;;;;18.98;87.87;156241.38;5090103;28;20541;-78
2022/08/25 04:46:11;;;;;;;7.90;5.80;;;;;;;18.97;88.11;156238.75;5055230;28;20441;-77
2022/08/25 04:48:39;;;;;;;6.57;5.90;;;;;;;19.00;88.44;156246.59;5071567;28;20516;-77
2022/08/25 04:51:07;;;;;;;6.50;5.90;;;;;;;19.02;88.15;156251.78;5083017;28;20452;-77
2022/08/25 04:53:33;;;;;;;7.27;6.57;;;;;;;19.07;88.40;156264.81;5086852;28;20453;-77
2022/08/25 04:56:00;;;;;;;7.07;5.93;;;;;;;19.15;88.97;156284.34;5053976;28;20486;-77
2022/08/25 04:58:27;;;;;;;6.37;5.77;;;;;;;19.18;89.14;156292.19;5055544;28;20434;-77
2022/08/25 05:00:53;;;;;;;5.87;5.33;;;;;;;19.19;88.54;156296.13;5071692;28;20473;-78
2022/08/25 05:03:22;;;;;;;6.80;6.20;;;;;;;19.22;88.99;156303.88;5070119;28;20438;-78
2022/08/25 05:05:48;;;;;;;7.20;6.50;;;;;;;19.20;88.76;156297.38;5072594;28;20507;-78
2022/08/25 05:08:15;;;;;;;6.20;5.60;;;;;;;19.19;88.49;156294.81;5089683;28;20515;-78
2022/08/25 05:10:42;;;;;;;6.63;6.03;;;;;;;19.25;88.89;156310.41;5071964;28;20798;-77
2022/08/25 05:13:09;;;;;;;6.93;6.17;;;;;;;19.30;88.83;156323.47;5073391;28;20434;-77
2022/08/25 05:15:50;;;;;;;7.87;5.60;;;;;;;19.41;88.67;156352.16;5106791;28;20433;-77
2022/08/25 05:18:18;;;;;;;7.17;6.30;;;;;;;19.53;88.66;156382.16;5106259;28;20894;-77
2022/08/25 05:20:46;;;;;;;6.10;5.60;;;;;;;19.59;87.98;156397.81;5106605;28;20505;-77
2022/08/25 05:23:12;;;;;;;7.30;6.60;;;;;;;19.62;87.90;156405.66;5073261;28;20441;-77
2022/08/25 05:25:41;;;;;;;7.67;6.87;;;;;;;19.73;87.62;156434.28;5106136;28;20513;-77
2022/08/25 05:28:08;;;;;;;7.53;6.90;;;;;;;19.73;87.84;156434.28;5095960;28;20550;-77
2022/08/25 05:30:38;;;;;;;12.53;6.80;;;;;;;19.79;87.87;156449.94;5072712;28;20530;-77
2022/08/25 05:33:05;;;;;;;7.10;6.40;;;;;;;19.87;87.38;156470.81;5073084;28;20429;-77
2022/08/25 05:35:32;;;;;;;7.77;7.07;;;;;;;20.14;86.26;156541.25;5070296;28;20446;-78
2022/08/25 05:38:00;;;;;;;6.70;6.10;;;;;;;20.38;85.43;156603.91;5079173;28;20504;-78
2022/08/25 05:40:27;;;;;;;7.10;6.40;;;;;;;20.56;84.02;156650.84;5071963;28;20466;-78
2022/08/25 05:42:54;;;;;;;6.13;5.57;;;;;;;20.77;83.43;156703.03;5073694;28;20437;-76
2022/08/25 05:45:21;;;;;;;7.17;6.57;;;;;;;20.99;82.98;156760.44;5069898;28;20430;-76
2022/08/25 05:47:48;;;;;;;7.30;6.33;;;;;;;21.23;81.29;156824.41;5068931;28;20458;-76
2022/08/25 05:50:15;;;;;;;7.00;6.30;;;;;;;21.53;79.34;156901.44;5071489;28;20426;-76
2022/08/25 05:52:42;;;;;;;9.03;6.80;;;;;;;21.56;79.20;156907.97;5104535;28;20936;-76
2022/08/25 05:55:11;;;;;;;7.00;6.27;;;;;;;21.72;77.97;156951.06;5070983;28;20500;-76
2022/08/25 05:57:37;;;;;;;7.60;6.90;;;;;;;21.76;78.45;156961.47;5059549;28;20478;-76
2022/08/25 06:00:06;;;;;;;8.00;6.47;;;;;;;21.85;77.69;156985.00;5069065;28;20497;-76
2022/08/25 06:02:42;;;;;;;7.10;6.30;;;;;;;22.07;77.33;157039.88;5103101;28;20458;-76
2022/08/25 06:05:09;;;;;;;6.60;5.90;;;;;;;22.23;77.15;157083.00;5104412;28;20442;-76
2022/08/25 06:07:36;;;;;;;8.83;6.37;;;;;;;22.33;75.34;157107.78;5071078;28;20473;-76
2022/08/25 06:10:03;;;;;;;7.17;6.47;;;;;;;22.44;75.87;157136.53;5054698;28;20485;-77
2022/08/25 06:12:34;;;;;;;7.03;6.43;;;;;;;22.69;75.26;157200.63;5067257;28;20470;-77
2022/08/25 06:15:01;;;;;;;7.73;6.97;;;;;;;22.80;74.18;157229.31;5084745;28;20449;-77
2022/08/25 06:17:28;;;;;;;8.27;7.57;;;;;;;23.14;72.39;157316.91;5086947;28;20450;-77
2022/08/25 06:19:55;;;;;;;8.07;7.27;;;;;;;23.21;72.26;157336.50;5101218;28;20551;-77
2022/08/25 06:22:24;;;;;;;7.50;6.80;;;;;;;23.57;70.34;157430.63;5070754;28;20458;-77
2022/08/25 06:24:50;;;;;;;7.57;6.90;;;;;;;23.47;69.99;157403.19;5072360;28;20534;-77
2022/08/25 06:27:17;;;;;;;7.57;6.97;;;;;;;23.52;70.33;157416.25;5070356;28;20689;-77
2022/08/25 06:29:45;;;;;;;7.47;6.77;;;;;;;23.70;70.05;157463.31;5071009;28;20488;-77
2022/08/25 06:32:12;;;;;;;7.20;6.50;;;;;;;23.88;69.62;157509.09;5069971;28;20485;-77
2022/08/25 06:34:39;;;;;;;7.67;6.97;;;;;;;24.00;68.64;157541.78;5068117;28;20723;-77
2022/08/25 06:37:06;;;;;;;7.40;6.80;;;;;;;24.35;67.43;157630.75;5067824;28;20844;-77
2022/08/25 06:39:33;;;;;;;8.47;7.47;;;;;;;24.65;66.78;157710.50;5067730;28;20468;-77
2022/08/25 06:42:00;;;;;;;6.77;6.17;;;;;;;24.90;66.63;157774.69;5065685;28;20450;-77
2022/08/25 06:44:27;;;;;;;8.27;7.33;;;;;;;25.23;63.90;157861.03;5068173;28;20465;-77
2022/08/25 06:46:55;;;;;;;8.13;7.30;;;;;;;25.38;63.23;157900.31;5084605;28;20445;-77
2022/08/25 06:49:21;;;;;;;7.33;6.70;;;;;;;25.33;63.27;157887.22;5050738;28;20442;-77
2022/08/25 06:51:49;;;;;;;7.77;6.70;;;;;;;25.42;63.39;157910.75;5067771;28;20426;-77
2022/08/25 06:54:16;;;;;;;6.87;6.27;;;;;;;25.67;62.70;157973.66;5069255;28;20434;-77
2022/08/25 06:56:42;;;;;;;6.70;6.13;;;;;;;25.80;61.88;158009.00;5068703;28;20572;-77
2022/08/25 06:59:09;;;;;;;7.80;7.00;;;;;;;25.95;61.33;158048.25;5084973;28;20434;-83
2022/08/25 07:01:36;;;;;;;7.33;6.73;;;;;;;26.18;60.64;158105.94;5071029;28;20426;-83
2022/08/25 07:04:06;;;;;;;8.40;7.07;;;;;;;26.30;59.86;158137.34;5071057;28;20434;-83
2022/08/25 07:06:35;;;;;;;7.70;7.10;;;;;;;26.22;60.40;158117.72;5071056;28;20453;-83
2022/08/25 07:09:03;;;;;;;6.63;6.03;;;;;;;26.45;59.75;158176.66;5070490;28;20442;-83
2022/08/25 07:11:33;;;;;;;7.63;7.00;;;;;;;26.09;60.73;158082.28;5070956;28;20974;-83
2022/08/25 07:14:01;;;;;;;8.60;7.30;;;;;;;26.37;59.16;158156.97;5071105;28;20437;-83
2022/08/25 07:16:28;;;;;;;7.77;7.00;;;;;;;26.41;59.02;158166.16;5104678;28;20511;-83
2022/08/25 07:18:55;;;;;;;7.33;6.73;;;;;;;26.79;58.55;158264.47;5071846;28;20441;-83
2022/08/25 07:21:24;;;;;;;8.37;7.60;;;;;;;26.33;58.85;158146.53;5072045;28;20524;-83
2022/08/25 07:23:51;;;;;;;7.13;6.53;;;;;;;26.64;59.27;158226.41;5069919;28;20434;-83
2022/08/25 07:26:19;;;;;;;8.53;6.60;;;;;;;26.88;58.52;158289.34;5061281;28;20457;-83
2022/08/25 07:28:46;;;;;;;7.43;6.73;;;;;;;26.92;57.95;158298.53;5071447;28;20516;-83
2022/08/25 07:31:13;;;;;;;7.27;6.67;;;;;;;26.79;57.15;158264.47;5076450;28;20957;-83
2022/08/25 07:35:13;;;;;;;7.90;7.00;;;;;;;26.77;57.10;158260.50;5078997;28;20449;-83
2022/08/25 07:36:27;;;;;;;7.47;6.77;;;;;;;26.80;57.30;158268.38;5105593;27;20445;-83
2022/08/25 07:38:54;;;;;;;9.23;6.80;;;;;;;26.48;59.10;158184.47;5070412;28;20541;-83
2022/08/25 07:41:21;;;;;;;7.83;7.03;;;;;;;26.58;57.87;158212.00;5070699;28;20481;-83
2022/08/25 07:43:47;;;;;;;8.00;7.30;;;;;;;26.77;57.32;158259.19;5070500;28;20481;-83
2022/08/25 07:46:14;;;;;;;8.20;6.80;;;;;;;26.97;57.10;158311.63;5071679;28;20791;-83
2022/08/25 07:48:41;;;;;;;7.97;7.17;;;;;;;26.77;58.11;158259.19;5071514;28;20430;-83
2022/08/25 07:51:10;;;;;;;7.67;6.90;;;;;;;26.94;57.44;158305.06;5069836;28;20473;-83
2022/08/25 07:53:39;;;;;;;7.77;7.00;;;;;;;27.26;57.33;158387.59;5103829;28;20456;-83
2022/08/25 07:56:10;;;;;;;7.33;6.63;;;;;;;27.34;56.23;158408.56;5086955;28;20986;-83
2022/08/25 07:58:37;;;;;;;7.70;6.93;;;;;;;27.32;55.07;158403.34;5104005;28;20444;-83
2022/08/25 08:01:05;;;;;;;7.03;6.43;;;;;;;27.34;56.08;158408.56;5071719;28;20509;-83
2022/08/25 08:03:33;;;;;;;6.73;6.13;;;;;;;27.37;55.79;158415.13;5086999;28;20430;-83
2022/08/25 08:06:00;;;;;;;6.53;5.93;;;;;;;27.47;55.38;158441.38;5087261;28;20534;-83
2022/08/25 08:08:26;;;;;;;6.80;6.10;;;;;;;27.76;54.40;158517.41;5070252;28;20851;-83
2022/08/25 08:10:54;;;;;;;6.97;6.33;;;;;;;28.24;53.39;158641.97;5086845;28;20449;-83
2022/08/25 08:13:22;;;;;;;6.47;5.90;;;;;;;28.54;52.80;158720.63;5071469;28;20773;-83
2022/08/25 08:15:49;;;;;;;6.67;6.07;;;;;;;28.27;52.30;158651.19;5070284;28;20453;-83
2022/08/25 08:18:16;;;;;;;6.83;6.23;;;;;;;28.12;52.56;158610.50;5071360;28;20787;-83
2022/08/25 08:20:44;;;;;;;6.57;6.07;;;;;;;28.37;52.60;158677.41;5071034;28;20941;-83
2022/08/25 08:23:11;;;;;;;6.47;5.97;;;;;;;28.56;51.79;158725.91;5086893;28;20639;-83
2022/08/25 08:25:37;;;;;;;11.63;6.63;;;;;;;28.07;52.92;158597.38;5069762;28;20486;-83
2022/08/25 08:28:06;;;;;;;7.10;6.40;;;;;;;27.79;53.10;158525.25;5071366;28;20893;-83
2022/08/25 08:30:35;;;;;;;6.80;6.03;;;;;;;27.31;54.72;158400.69;5069663;28;20437;-83
2022/08/25 08:33:03;;;;;;;7.33;6.73;;;;;;;27.03;56.03;158328.63;5103811;28;20434;-83
2022/08/25 08:35:29;;;;;;;7.07;6.47;;;;;;;27.45;55.65;158437.47;5086820;28;20423;-83
2022/08/25 08:37:56;;;;;;;7.67;6.87;;;;;;;27.77;54.78;158521.31;5070009;28;20444;-83
2022/08/25 08:40:23;;;;;;;7.00;6.33;;;;;;;27.70;54.06;158501.66;5070848;28;20569;-83
2022/08/25 08:43:02;;;;;;;7.50;6.80;;;;;;;27.65;54.16;158489.88;5086967;28;20441;-83
2022/08/25 08:45:33;;;;;;;6.67;6.07;;;;;;;27.80;54.67;158529.16;5071543;28;20414;-83
2022/08/25 08:48:12;;;;;;;6.20;5.70;;;;;;;27.97;54.04;158571.13;5071036;28;20419;-83
2022/08/25 08:50:43;;;;;;;7.00;6.33;;;;;;;28.10;52.46;158605.25;5071187;28;20759;-83
2022/08/25 08:53:13;;;;;;;6.60;6.10;;;;;;;27.79;53.53;158526.59;5103769;28;20434;-83
2022/08/25 08:55:42;;;;;;;7.47;6.77;;;;;;;28.05;53.52;158592.16;5069765;28;20524;-83
2022/08/25 08:58:11;;;;;;;7.33;6.63;;;;;;;28.32;52.59;158662.97;5070797;28;20452;-83
2022/08/25 09:00:43;;;;;;;6.80;6.20;;;;;;;28.13;52.64;158613.13;5070831;28;20458;-83
2022/08/25 09:03:13;;;;;;;6.43;5.93;;;;;;;28.24;53.01;158641.97;5071092;28;20536;-84
2022/08/25 09:05:45;;;;;;;7.10;6.40;;;;;;;27.73;54.15;158509.53;5106983;28;20780;-83
2022/08/25 09:08:13;;;;;;;7.57;6.87;;;;;;;27.56;53.68;158465.00;5074666;28;20501;-84
2022/08/25 09:10:50;;;;;;;7.10;6.40;;;;;;;27.33;53.72;158405.94;5074389;28;20556;-84
2022/08/25 09:13:25;;;;;;;6.03;5.43;;;;;;;27.06;55.26;158335.16;5073065;28;20480;-84
2022/08/25 09:18:47;;;;;;;7.63;6.47;;;;;;;26.92;54.78;158299.84;5090101;28;20464;-83
2022/08/25 09:21:20;;;;;;;6.80;6.20;;;;;;;27.34;54.47;158408.56;5072921;28;20477;-84
2022/08/25 09:23:59;;;;;;;6.20;5.70;;;;;;;27.43;53.81;158432.19;5074266;28;20453;-84
2022/08/25 09:26:32;;;;;;;6.17;5.67;;;;;;;26.96;54.79;158310.28;5097394;28;20548;-84
2022/08/25 09:29:03;;;;;;;6.00;5.50;;;;;;;27.01;53.54;158322.06;5074308;28;20418;-84
2022/08/25 09:31:34;;;;;;;5.60;5.10;;;;;;;26.87;53.84;158285.44;5074324;28;20917;-84
2022/08/25 09:34:02;;;;;;;5.73;5.07;;;;;;;26.50;54.70;158191.03;5074020;28;20743;-84
2022/08/25 09:36:30;;;;;;;5.80;5.30;;;;;;;26.30;56.09;158138.66;5074420;28;20533;-83
2022/08/25 09:38:56;;;;;;;6.53;5.10;;;;;;;26.58;55.35;158210.72;5074090;28;20553;-83
2022/08/25 09:41:44;;;;;;;8.53;6.33;;;;;;;26.50;54.92;158189.75;5073914;28;20485;-83
2022/08/25 09:44:21;;;;;;;7.47;5.80;;;;;;;26.81;54.63;158269.69;5073989;28;20440;-83
2022/08/25 09:47:00;;;;;;;6.57;5.97;;;;;;;26.79;53.82;158264.47;5106746;28;20449;-83
2022/08/25 09:49:39;;;;;;;5.80;5.30;;;;;;;26.25;55.33;158124.25;5073489;28;20534;-83
2022/08/25 09:52:31;;;;;;;6.33;5.37;;;;;;;26.24;55.89;158121.66;5072665;28;20499;-84
2022/08/25 09:55:01;;;;;;;6.40;5.80;;;;;;;26.28;55.43;158133.44;5072528;28;20434;-83
2022/08/25 09:57:33;;;;;;;6.90;6.30;;;;;;;26.43;55.57;158172.72;5073616;28;20805;-83
2022/08/25 10:00:12;;;;;;;7.40;6.70;;;;;;;26.20;56.20;158112.47;5073175;28;20433;-83
2022/08/25 10:02:41;;;;;;;6.10;5.40;;;;;;;27.02;53.34;158324.72;5106531;28;20532;-83
2022/08/25 10:05:20;;;;;;;5.70;5.10;;;;;;;27.27;51.90;158388.94;5072264;28;20434;-83
2022/08/25 10:07:53;;;;;;;6.03;5.53;;;;;;;27.08;52.70;158340.44;5085752;28;20550;-84
2022/08/25 10:10:27;;;;;;;6.00;5.50;;;;;;;27.23;52.73;158378.41;5068387;28;20423;-83
2022/08/25 10:12:57;;;;;;;6.47;5.20;;;;;;;27.44;51.91;158433.50;5069029;28;20434;-83
2022/08/25 10:15:27;;;;;;;5.50;4.50;;;;;;;27.32;51.41;158403.34;5052092;28;20929;-83
2022/08/25 10:17:55;;;;;;;5.30;4.77;;;;;;;27.34;51.93;158408.56;5068765;28;20449;-83
2022/08/25 10:20:24;;;;;;;6.13;5.53;;;;;;;27.17;53.59;158364.00;5085101;28;20532;-84
2022/08/25 10:22:52;;;;;;;5.90;5.40;;;;;;;27.01;53.63;158322.06;5059536;28;20448;-83
2022/08/25 10:25:25;;;;;;;8.50;5.50;;;;;;;27.09;52.38;158343.03;5071689;28;20446;-84
2022/08/25 10:27:58;;;;;;;5.47;5.07;;;;;;;27.09;52.41;158344.34;5072088;28;20435;-83
2022/08/25 10:30:32;;;;;;;5.63;5.10;;;;;;;27.30;52.37;158398.06;5072823;28;20511;-83
2022/08/25 10:33:08;;;;;;;6.30;5.70;;;;;;;27.02;53.43;158326.03;5071917;28;20495;-84
2022/08/25 10:35:48;;;;;;;6.87;5.57;;;;;;;26.86;52.29;158282.78;5071521;28;20795;-84
2022/08/25 10:38:29;;;;;;;5.80;5.30;;;;;;;26.76;53.13;158256.53;5072933;28;20426;-84
2022/08/25 10:41:00;;;;;;;6.57;5.97;;;;;;;26.89;52.30;158291.97;5072476;28;20581;-84
2022/08/25 10:43:31;;;;;;;4.57;4.17;;;;;;;26.85;50.75;158281.47;5071620;28;20426;-84
2022/08/25 10:46:05;;;;;;;5.50;5.00;;;;;;;26.57;51.95;158209.41;5105399;28;20533;-84
2022/08/25 10:48:52;;;;;;;5.17;4.70;;;;;;;26.77;52.69;158259.19;5071438;28;20460;-82
2022/08/25 10:51:33;;;;;;;6.50;5.10;;;;;;;27.26;50.27;158386.28;5104986;28;20553;-83
2022/08/25 10:54:06;;;;;;;5.73;5.23;;;;;;;26.93;50.73;158301.09;5072498;28;20417;-83
2022/08/25 10:56:35;;;;;;;5.33;4.87;;;;;;;26.90;51.91;158293.28;5071132;28;20504;-83
2022/08/25 10:59:26;;;;;;;5.77;5.17;;;;;;;26.77;51.57;158260.50;5071137;28;20779;-83
2022/08/25 11:02:10;;;;;;;5.40;4.90;;;;;;;26.72;51.41;158247.34;5071272;28;20474;-83
2022/08/25 11:04:41;;;;;;;4.77;4.37;;;;;;;26.96;49.50;158310.28;5071069;28;20425;-83
2022/08/25 11:07:11;;;;;;;5.80;5.30;;;;;;;26.94;50.77;158305.06;5072839;28;20524;-83
2022/08/25 11:09:40;;;;;;;5.97;5.47;;;;;;;26.76;51.33;158256.53;5070770;28;20449;-83
2022/08/25 11:12:10;;;;;;;4.67;4.27;;;;;;;26.74;50.16;158251.31;5072462;28;20921;-83
2022/08/25 11:14:41;;;;;;;4.90;4.50;;;;;;;26.55;51.22;158204.19;5104673;28;20480;-83
2022/08/25 11:17:12;;;;;;;6.30;5.80;;;;;;;26.67;52.05;158234.25;5071015;28;20532;-84
2022/08/25 11:19:45;;;;;;;5.70;5.20;;;;;;;26.69;52.49;158238.22;5087569;28;20528;-84
2022/08/25 11:22:15;;;;;;;5.70;5.20;;;;;;;26.73;52.27;158248.69;5072244;28;20811;-84
2022/08/25 11:24:56;;;;;;;5.57;5.07;;;;;;;26.91;52.64;158297.19;5070851;28;20446;-84
2022/08/25 11:27:28;;;;;;;5.77;5.27;;;;;;;27.10;51.71;158347.00;5071555;28;20450;-84
2022/08/25 11:30:02;;;;;;;5.37;4.87;;;;;;;27.11;51.57;158349.59;5070384;28;20437;-84
2022/08/25 11:32:32;;;;;;;5.80;5.30;;;;;;;27.35;51.72;158409.91;5070984;28;20446;-84
2022/08/25 11:35:03;;;;;;;6.60;6.00;;;;;;;27.54;51.77;158461.03;5072198;28;20496;-84
2022/08/25 11:37:31;;;;;;;5.77;5.17;;;;;;;27.14;51.36;158357.44;5072550;28;20429;-84